sensor_id;sensor_type;location;lat;lon;timestamp;P1;durP1;ratioP1;P2;durP2;ratioP2
803;SDS011;25687;49.976;8.240;2023-06-22T00:00:50;6.03;;;5.53;;
803;SDS011;25687;49.976;8.240;2023-06-22T00:03:19;5.30;;;4.90;;
803;SDS011;25687;49.976;8.240;2023-06-22T00:05:46;5.80;;;5.30;;
803;SDS011;25687;49.976;8.240;2023-06-22T00:08:14;5.30;;;4.80;;
803;SDS011;25687;49.976;8.240;2023-06-22T00:10:40;5.90;;;5.30;;
803;SDS011;25687;49.976;8.240;2023-06-22T00:13:05;5.80;;;5.30;;
803;SDS011;25687;49.976;8.240;2023-06-22T00:15:32;5.93;;;5.33;;
803;SDS011;25687;49.976;8.240;2023-06-22T00:17:58;6.13;;;5.63;;
803;SDS011;25687;49.976;8.240;2023-06-22T00:20:24;7.57;;;5.60;;
803;SDS011;25687;49.976;8.240;2023-06-22T00:22:56;5.87;;;5.37;;
803;SDS011;25687;49.976;8.240;2023-06-22T00:25:22;5.83;;;5.27;;
803;SDS011;25687;49.976;8.240;2023-06-22T00:27:48;5.90;;;5.33;;
803;SDS011;25687;49.976;8.240;2023-06-22T00:30:15;10.43;;;5.50;;
803;SDS011;25687;49.976;8.240;2023-06-22T00:32:40;5.77;;;5.23;;
803;SDS011;25687;49.976;8.240;2023-06-22T00:35:06;6.03;;;5.07;;
803;SDS011;25687;49.976;8.240;2023-06-22T00:37:32;6.03;;;5.43;;
803;SDS011;25687;49.976;8.240;2023-06-22T00:39:57;5.40;;;4.90;;
803;SDS011;25687;49.976;8.240;2023-06-22T00:42:23;5.63;;;5.23;;
803;SDS011;25687;49.976;8.240;2023-06-22T00:44:48;6.60;;;6.00;;
803;SDS011;25687;49.976;8.240;2023-06-22T00:47:14;9.07;;;5.90;;
803;SDS011;25687;49.976;8.240;2023-06-22T00:49:42;6.63;;;6.00;;
803;SDS011;25687;49.976;8.240;2023-06-22T00:52:07;7.40;;;6.50;;
803;SDS011;25687;49.976;8.240;2023-06-22T00:54:39;7.40;;;6.70;;
803;SDS011;25687;49.976;8.240;2023-06-22T00:57:10;7.93;;;7.20;;
803;SDS011;25687;49.976;8.240;2023-06-22T00:59:37;11.37;;;7.33;;
803;SDS011;25687;49.976;8.240;2023-06-22T01:02:02;8.20;;;7.50;;
803;SDS011;25687;49.976;8.240;2023-06-22T01:04:34;7.37;;;6.57;;
803;SDS011;25687;49.976;8.240;2023-06-22T01:07:13;8.37;;;7.53;;
803;SDS011;25687;49.976;8.240;2023-06-22T01:12:26;9.30;;;8.47;;
803;SDS011;25687;49.976;8.240;2023-06-22T01:14:58;11.97;;;8.27;;
803;SDS011;25687;49.976;8.240;2023-06-22T01:17:29;9.00;;;7.97;;
803;SDS011;25687;49.976;8.240;2023-06-22T01:19:57;11.60;;;9.43;;
803;SDS011;25687;49.976;8.240;2023-06-22T01:22:26;9.00;;;8.20;;
803;SDS011;25687;49.976;8.240;2023-06-22T01:28:23;9.43;;;8.53;;
803;SDS011;25687;49.976;8.240;2023-06-22T01:30:55;10.33;;;9.07;;
803;SDS011;25687;49.976;8.240;2023-06-22T01:33:34;10.73;;;9.47;;
803;SDS011;25687;49.976;8.240;2023-06-22T01:36:02;10.90;;;9.90;;
803;SDS011;25687;49.976;8.240;2023-06-22T01:38:29;11.10;;;10.10;;
803;SDS011;25687;49.976;8.240;2023-06-22T01:40:55;11.07;;;10.13;;
803;SDS011;25687;49.976;8.240;2023-06-22T01:43:22;11.43;;;10.27;;
803;SDS011;25687;49.976;8.240;2023-06-22T01:45:50;10.10;;;9.10;;
803;SDS011;25687;49.976;8.240;2023-06-22T01:48:17;9.93;;;9.03;;
803;SDS011;25687;49.976;8.240;2023-06-22T01:50:43;10.67;;;9.67;;
803;SDS011;25687;49.976;8.240;2023-06-22T01:53:08;10.03;;;9.17;;
803;SDS011;25687;49.976;8.240;2023-06-22T01:55:33;10.47;;;9.57;;
803;SDS011;25687;49.976;8.240;2023-06-22T01:57:59;9.97;;;9.17;;
803;SDS011;25687;49.976;8.240;2023-06-22T02:00:24;10.03;;;9.17;;
803;SDS011;25687;49.976;8.240;2023-06-22T02:02:59;10.30;;;9.30;;
803;SDS011;25687;49.976;8.240;2023-06-22T02:05:43;9.90;;;9.10;;
803;SDS011;25687;49.976;8.240;2023-06-22T02:08:19;11.17;;;10.07;;
803;SDS011;25687;49.976;8.240;2023-06-22T02:10:48;11.00;;;10.10;;
803;SDS011;25687;49.976;8.240;2023-06-22T02:13:15;10.40;;;9.50;;
803;SDS011;25687;49.976;8.240;2023-06-22T02:15:41;10.53;;;9.70;;
803;SDS011;25687;49.976;8.240;2023-06-22T02:18:07;10.63;;;9.53;;
803;SDS011;25687;49.976;8.240;2023-06-22T02:20:32;11.23;;;10.10;;
803;SDS011;25687;49.976;8.240;2023-06-22T02:22:57;11.67;;;10.47;;
803;SDS011;25687;49.976;8.240;2023-06-22T02:25:23;11.20;;;10.17;;
803;SDS011;25687;49.976;8.240;2023-06-22T02:27:48;11.47;;;10.37;;
803;SDS011;25687;49.976;8.240;2023-06-22T02:30:14;12.00;;;10.83;;
803;SDS011;25687;49.976;8.240;2023-06-22T02:32:40;12.63;;;11.13;;
803;SDS011;25687;49.976;8.240;2023-06-22T02:35:07;11.63;;;10.63;;
803;SDS011;25687;49.976;8.240;2023-06-22T02:37:36;11.47;;;10.17;;
803;SDS011;25687;49.976;8.240;2023-06-22T02:40:07;11.50;;;10.40;;
803;SDS011;25687;49.976;8.240;2023-06-22T02:42:34;11.97;;;10.70;;
803;SDS011;25687;49.976;8.240;2023-06-22T02:44:59;10.63;;;9.70;;
803;SDS011;25687;49.976;8.240;2023-06-22T02:47:25;10.67;;;9.77;;
803;SDS011;25687;49.976;8.240;2023-06-22T02:49:50;12.47;;;11.17;;
803;SDS011;25687;49.976;8.240;2023-06-22T02:52:16;11.20;;;10.20;;
803;SDS011;25687;49.976;8.240;2023-06-22T02:54:41;11.43;;;10.23;;
803;SDS011;25687;49.976;8.240;2023-06-22T02:57:06;11.43;;;10.50;;
803;SDS011;25687;49.976;8.240;2023-06-22T02:59:39;11.37;;;10.37;;
803;SDS011;25687;49.976;8.240;2023-06-22T03:02:06;10.43;;;9.43;;
803;SDS011;25687;49.976;8.240;2023-06-22T03:04:32;12.07;;;10.70;;
803;SDS011;25687;49.976;8.240;2023-06-22T03:06:57;12.37;;;10.67;;
803;SDS011;25687;49.976;8.240;2023-06-22T03:09:26;13.30;;;10.97;;
803;SDS011;25687;49.976;8.240;2023-06-22T03:11:54;11.50;;;10.50;;
803;SDS011;25687;49.976;8.240;2023-06-22T03:14:20;11.13;;;10.03;;
803;SDS011;25687;49.976;8.240;2023-06-22T03:16:45;13.73;;;10.00;;
803;SDS011;25687;49.976;8.240;2023-06-22T03:19:10;11.63;;;10.53;;
803;SDS011;25687;49.976;8.240;2023-06-22T03:21:36;11.70;;;10.03;;
803;SDS011;25687;49.976;8.240;2023-06-22T03:24:03;10.83;;;9.93;;
803;SDS011;25687;49.976;8.240;2023-06-22T03:26:29;11.93;;;10.83;;
803;SDS011;25687;49.976;8.240;2023-06-22T03:28:55;10.60;;;9.70;;
803;SDS011;25687;49.976;8.240;2023-06-22T03:31:20;11.87;;;10.53;;
803;SDS011;25687;49.976;8.240;2023-06-22T03:33:46;10.73;;;9.77;;
803;SDS011;25687;49.976;8.240;2023-06-22T03:36:13;11.53;;;10.43;;
803;SDS011;25687;49.976;8.240;2023-06-22T03:38:38;11.10;;;10.10;;
803;SDS011;25687;49.976;8.240;2023-06-22T03:41:03;11.33;;;10.33;;
803;SDS011;25687;49.976;8.240;2023-06-22T03:43:29;11.40;;;10.40;;
803;SDS011;25687;49.976;8.240;2023-06-22T03:45:54;11.37;;;10.37;;
803;SDS011;25687;49.976;8.240;2023-06-22T03:48:19;11.33;;;10.43;;
803;SDS011;25687;49.976;8.240;2023-06-22T03:50:45;12.30;;;11.17;;
803;SDS011;25687;49.976;8.240;2023-06-22T03:53:10;11.33;;;10.33;;
803;SDS011;25687;49.976;8.240;2023-06-22T03:55:35;11.30;;;10.20;;
803;SDS011;25687;49.976;8.240;2023-06-22T03:58:01;11.20;;;10.30;;
803;SDS011;25687;49.976;8.240;2023-06-22T04:00:30;13.63;;;12.23;;
803;SDS011;25687;49.976;8.240;2023-06-22T04:02:56;10.57;;;9.67;;
803;SDS011;25687;49.976;8.240;2023-06-22T04:05:22;10.67;;;9.67;;
803;SDS011;25687;49.976;8.240;2023-06-22T04:07:47;10.50;;;9.50;;
803;SDS011;25687;49.976;8.240;2023-06-22T04:10:12;10.43;;;9.63;;
803;SDS011;25687;49.976;8.240;2023-06-22T04:12:37;9.67;;;8.87;;
803;SDS011;25687;49.976;8.240;2023-06-22T04:15:03;13.10;;;9.47;;
803;SDS011;25687;49.976;8.240;2023-06-22T04:17:28;10.70;;;9.70;;
803;SDS011;25687;49.976;8.240;2023-06-22T04:19:54;11.43;;;10.33;;
803;SDS011;25687;49.976;8.240;2023-06-22T04:22:19;12.53;;;10.17;;
803;SDS011;25687;49.976;8.240;2023-06-22T04:24:44;9.70;;;8.67;;
803;SDS011;25687;49.976;8.240;2023-06-22T04:27:09;10.93;;;9.93;;
803;SDS011;25687;49.976;8.240;2023-06-22T04:29:35;10.40;;;9.40;;
803;SDS011;25687;49.976;8.240;2023-06-22T04:32:00;9.93;;;9.13;;
803;SDS011;25687;49.976;8.240;2023-06-22T04:34:31;10.20;;;9.37;;
803;SDS011;25687;49.976;8.240;2023-06-22T04:36:56;10.30;;;9.40;;
803;SDS011;25687;49.976;8.240;2023-06-22T04:39:22;9.60;;;8.80;;
803;SDS011;25687;49.976;8.240;2023-06-22T04:41:49;10.37;;;9.47;;
803;SDS011;25687;49.976;8.240;2023-06-22T04:44:16;10.73;;;9.10;;
803;SDS011;25687;49.976;8.240;2023-06-22T04:46:55;10.73;;;9.83;;
803;SDS011;25687;49.976;8.240;2023-06-22T04:49:26;10.13;;;9.23;;
803;SDS011;25687;49.976;8.240;2023-06-22T04:51:59;10.97;;;9.33;;
803;SDS011;25687;49.976;8.240;2023-06-22T04:54:25;10.10;;;9.03;;
803;SDS011;25687;49.976;8.240;2023-06-22T04:56:50;9.93;;;9.13;;
803;SDS011;25687;49.976;8.240;2023-06-22T04:59:25;9.30;;;8.50;;
803;SDS011;25687;49.976;8.240;2023-06-22T05:01:56;10.83;;;9.10;;
803;SDS011;25687;49.976;8.240;2023-06-22T05:04:23;10.30;;;9.30;;
803;SDS011;25687;49.976;8.240;2023-06-22T05:06:49;9.37;;;8.47;;
803;SDS011;25687;49.976;8.240;2023-06-22T05:09:15;9.37;;;8.03;;
803;SDS011;25687;49.976;8.240;2023-06-22T05:11:42;9.47;;;8.53;;
803;SDS011;25687;49.976;8.240;2023-06-22T05:14:07;9.57;;;8.67;;
803;SDS011;25687;49.976;8.240;2023-06-22T05:16:32;9.67;;;8.77;;
803;SDS011;25687;49.976;8.240;2023-06-22T05:18:58;12.93;;;8.80;;
803;SDS011;25687;49.976;8.240;2023-06-22T05:21:23;9.10;;;8.30;;
803;SDS011;25687;49.976;8.240;2023-06-22T05:23:50;10.13;;;9.13;;
803;SDS011;25687;49.976;8.240;2023-06-22T05:26:16;9.90;;;8.93;;
803;SDS011;25687;49.976;8.240;2023-06-22T05:28:42;9.33;;;8.40;;
803;SDS011;25687;49.976;8.240;2023-06-22T05:31:10;9.27;;;8.47;;
803;SDS011;25687;49.976;8.240;2023-06-22T05:33:36;8.70;;;7.90;;
803;SDS011;25687;49.976;8.240;2023-06-22T05:36:01;9.30;;;8.47;;
803;SDS011;25687;49.976;8.240;2023-06-22T05:38:26;11.87;;;8.50;;
803;SDS011;25687;49.976;8.240;2023-06-22T05:40:52;8.60;;;7.63;;
803;SDS011;25687;49.976;8.240;2023-06-22T05:43:17;9.23;;;8.43;;
803;SDS011;25687;49.976;8.240;2023-06-22T05:45:42;9.67;;;8.87;;
803;SDS011;25687;49.976;8.240;2023-06-22T05:48:08;9.30;;;8.47;;
803;SDS011;25687;49.976;8.240;2023-06-22T05:50:33;10.07;;;9.03;;
803;SDS011;25687;49.976;8.240;2023-06-22T05:52:58;9.33;;;8.50;;
803;SDS011;25687;49.976;8.240;2023-06-22T05:55:24;8.80;;;8.10;;
803;SDS011;25687;49.976;8.240;2023-06-22T05:57:49;10.17;;;9.17;;
803;SDS011;25687;49.976;8.240;2023-06-22T06:00:14;9.33;;;8.33;;
803;SDS011;25687;49.976;8.240;2023-06-22T06:02:40;9.33;;;8.47;;
803;SDS011;25687;49.976;8.240;2023-06-22T06:05:08;9.77;;;8.77;;
803;SDS011;25687;49.976;8.240;2023-06-22T06:07:35;9.27;;;8.47;;
803;SDS011;25687;49.976;8.240;2023-06-22T06:10:02;8.85;;;7.95;;
803;SDS011;25687;49.976;8.240;2023-06-22T06:12:29;9.07;;;8.15;;
803;SDS011;25687;49.976;8.240;2023-06-22T06:14:54;8.73;;;7.93;;
803;SDS011;25687;49.976;8.240;2023-06-22T06:17:21;10.10;;;8.43;;
803;SDS011;25687;49.976;8.240;2023-06-22T06:19:46;10.70;;;8.27;;
803;SDS011;25687;49.976;8.240;2023-06-22T06:22:12;8.85;;;8.05;;
803;SDS011;25687;49.976;8.240;2023-06-22T06:24:37;8.55;;;7.75;;
803;SDS011;25687;49.976;8.240;2023-06-22T06:27:02;10.85;;;8.40;;
803;SDS011;25687;49.976;8.240;2023-06-22T06:29:29;12.90;;;8.15;;
803;SDS011;25687;49.976;8.240;2023-06-22T06:31:55;11.18;;;7.78;;
803;SDS011;25687;49.976;8.240;2023-06-22T06:34:21;9.55;;;7.38;;
803;SDS011;25687;49.976;8.240;2023-06-22T06:36:47;11.35;;;8.18;;
803;SDS011;25687;49.976;8.240;2023-06-22T06:39:12;9.10;;;8.20;;
803;SDS011;25687;49.976;8.240;2023-06-22T06:41:37;8.52;;;7.68;;
803;SDS011;25687;49.976;8.240;2023-06-22T06:44:02;8.48;;;7.68;;
803;SDS011;25687;49.976;8.240;2023-06-22T06:46:28;9.07;;;8.20;;
803;SDS011;25687;49.976;8.240;2023-06-22T06:48:53;10.93;;;7.93;;
803;SDS011;25687;49.976;8.240;2023-06-22T06:51:18;8.48;;;7.78;;
803;SDS011;25687;49.976;8.240;2023-06-22T06:53:44;8.48;;;7.68;;
803;SDS011;25687;49.976;8.240;2023-06-22T06:56:09;9.00;;;7.30;;
803;SDS011;25687;49.976;8.240;2023-06-22T06:58:35;8.23;;;7.50;;
803;SDS011;25687;49.976;8.240;2023-06-22T07:01:01;8.68;;;7.88;;
803;SDS011;25687;49.976;8.240;2023-06-22T07:03:27;7.70;;;6.90;;
803;SDS011;25687;49.976;8.240;2023-06-22T07:05:52;8.30;;;7.57;;
803;SDS011;25687;49.976;8.240;2023-06-22T07:08:18;10.05;;;7.72;;
803;SDS011;25687;49.976;8.240;2023-06-22T07:10:43;9.57;;;7.18;;
803;SDS011;25687;49.976;8.240;2023-06-22T07:13:08;10.32;;;6.97;;
803;SDS011;25687;49.976;8.240;2023-06-22T07:15:33;8.57;;;7.28;;
803;SDS011;25687;49.976;8.240;2023-06-22T07:17:59;10.07;;;7.50;;
803;SDS011;25687;49.976;8.240;2023-06-22T07:20:24;8.35;;;7.53;;
803;SDS011;25687;49.976;8.240;2023-06-22T07:22:49;8.25;;;7.40;;
803;SDS011;25687;49.976;8.240;2023-06-22T07:25:16;7.88;;;7.13;;
803;SDS011;25687;49.976;8.240;2023-06-22T07:27:46;7.75;;;6.68;;
803;SDS011;25687;49.976;8.240;2023-06-22T07:30:24;7.38;;;6.70;;
803;SDS011;25687;49.976;8.240;2023-06-22T07:32:50;10.05;;;8.15;;
803;SDS011;25687;49.976;8.240;2023-06-22T07:35:15;8.57;;;7.68;;
803;SDS011;25687;49.976;8.240;2023-06-22T07:37:41;9.30;;;7.95;;
803;SDS011;25687;49.976;8.240;2023-06-22T07:40:07;8.35;;;7.55;;
803;SDS011;25687;49.976;8.240;2023-06-22T07:42:33;8.35;;;7.35;;
803;SDS011;25687;49.976;8.240;2023-06-22T07:44:58;7.82;;;6.97;;
803;SDS011;25687;49.976;8.240;2023-06-22T07:47:23;8.43;;;7.10;;
803;SDS011;25687;49.976;8.240;2023-06-22T07:49:53;9.77;;;6.97;;
803;SDS011;25687;49.976;8.240;2023-06-22T07:52:19;7.78;;;7.18;;
803;SDS011;25687;49.976;8.240;2023-06-22T07:54:45;8.85;;;8.05;;
803;SDS011;25687;49.976;8.240;2023-06-22T07:57:11;11.23;;;7.97;;
803;SDS011;25687;49.976;8.240;2023-06-22T07:59:36;8.40;;;7.68;;
803;SDS011;25687;49.976;8.240;2023-06-22T08:02:01;8.27;;;7.30;;
803;SDS011;25687;49.976;8.240;2023-06-22T08:04:28;9.40;;;6.90;;
803;SDS011;25687;49.976;8.240;2023-06-22T08:06:53;9.45;;;6.90;;
803;SDS011;25687;49.976;8.240;2023-06-22T08:09:19;8.70;;;7.85;;
803;SDS011;25687;49.976;8.240;2023-06-22T08:11:44;9.88;;;7.78;;
803;SDS011;25687;49.976;8.240;2023-06-22T08:14:10;9.57;;;7.78;;
803;SDS011;25687;49.976;8.240;2023-06-22T08:16:35;10.75;;;8.20;;
803;SDS011;25687;49.976;8.240;2023-06-22T08:19:00;9.57;;;7.65;;
803;SDS011;25687;49.976;8.240;2023-06-22T08:21:25;8.65;;;7.80;;
803;SDS011;25687;49.976;8.240;2023-06-22T08:23:51;9.15;;;7.90;;
803;SDS011;25687;49.976;8.240;2023-06-22T08:26:16;12.05;;;9.20;;
803;SDS011;25687;49.976;8.240;2023-06-22T08:28:41;9.65;;;7.80;;
803;SDS011;25687;49.976;8.240;2023-06-22T08:31:07;9.52;;;8.50;;
803;SDS011;25687;49.976;8.240;2023-06-22T08:33:33;8.20;;;7.40;;
803;SDS011;25687;49.976;8.240;2023-06-22T08:35:58;8.73;;;7.82;;
803;SDS011;25687;49.976;8.240;2023-06-22T08:38:25;9.70;;;8.73;;
803;SDS011;25687;49.976;8.240;2023-06-22T08:40:50;8.52;;;7.78;;
803;SDS011;25687;49.976;8.240;2023-06-22T08:43:15;10.93;;;9.20;;
803;SDS011;25687;49.976;8.240;2023-06-22T08:45:40;8.93;;;8.13;;
803;SDS011;25687;49.976;8.240;2023-06-22T08:48:06;10.48;;;7.55;;
803;SDS011;25687;49.976;8.240;2023-06-22T08:50:31;8.50;;;7.60;;
803;SDS011;25687;49.976;8.240;2023-06-22T08:52:56;8.95;;;8.15;;
803;SDS011;25687;49.976;8.240;2023-06-22T08:55:22;10.68;;;7.57;;
803;SDS011;25687;49.976;8.240;2023-06-22T08:57:47;9.05;;;8.20;;
803;SDS011;25687;49.976;8.240;2023-06-22T09:00:12;8.88;;;8.07;;
803;SDS011;25687;49.976;8.240;2023-06-22T09:02:45;12.65;;;8.88;;
803;SDS011;25687;49.976;8.240;2023-06-22T09:05:11;8.90;;;8.15;;
803;SDS011;25687;49.976;8.240;2023-06-22T09:07:37;14.95;;;9.80;;
803;SDS011;25687;49.976;8.240;2023-06-22T09:10:02;8.27;;;7.53;;
803;SDS011;25687;49.976;8.240;2023-06-22T09:12:31;8.63;;;7.82;;
803;SDS011;25687;49.976;8.240;2023-06-22T09:14:57;9.20;;;7.20;;
803;SDS011;25687;49.976;8.240;2023-06-22T09:17:25;8.73;;;7.25;;
803;SDS011;25687;49.976;8.240;2023-06-22T09:19:50;8.88;;;8.07;;
803;SDS011;25687;49.976;8.240;2023-06-22T09:22:15;8.52;;;7.72;;
803;SDS011;25687;49.976;8.240;2023-06-22T09:24:41;9.07;;;8.18;;
803;SDS011;25687;49.976;8.240;2023-06-22T09:27:06;9.15;;;7.82;;
803;SDS011;25687;49.976;8.240;2023-06-22T09:29:31;9.23;;;8.30;;
803;SDS011;25687;49.976;8.240;2023-06-22T09:32:00;8.70;;;7.95;;
803;SDS011;25687;49.976;8.240;2023-06-22T09:34:25;8.30;;;7.60;;
803;SDS011;25687;49.976;8.240;2023-06-22T09:36:51;8.38;;;7.50;;
803;SDS011;25687;49.976;8.240;2023-06-22T09:39:17;8.75;;;7.95;;
803;SDS011;25687;49.976;8.240;2023-06-22T09:41:43;9.10;;;8.07;;
803;SDS011;25687;49.976;8.240;2023-06-22T09:44:08;10.32;;;8.23;;
803;SDS011;25687;49.976;8.240;2023-06-22T09:46:33;9.45;;;7.78;;
803;SDS011;25687;49.976;8.240;2023-06-22T09:48:59;10.70;;;8.02;;
803;SDS011;25687;49.976;8.240;2023-06-22T09:51:24;8.70;;;7.85;;
803;SDS011;25687;49.976;8.240;2023-06-22T09:53:49;11.02;;;7.63;;
803;SDS011;25687;49.976;8.240;2023-06-22T09:56:15;9.65;;;7.68;;
803;SDS011;25687;49.976;8.240;2023-06-22T09:58:41;10.35;;;7.47;;
803;SDS011;25687;49.976;8.240;2023-06-22T10:01:07;8.95;;;7.32;;
803;SDS011;25687;49.976;8.240;2023-06-22T10:03:32;9.07;;;6.68;;
803;SDS011;25687;49.976;8.240;2023-06-22T10:05:57;8.57;;;6.97;;
803;SDS011;25687;49.976;8.240;2023-06-22T10:08:23;7.10;;;6.50;;
803;SDS011;25687;49.976;8.240;2023-06-22T10:10:48;9.23;;;7.13;;
803;SDS011;25687;49.976;8.240;2023-06-22T10:13:13;7.95;;;7.15;;
803;SDS011;25687;49.976;8.240;2023-06-22T10:15:39;11.85;;;6.88;;
803;SDS011;25687;49.976;8.240;2023-06-22T10:18:05;10.50;;;6.68;;
803;SDS011;25687;49.976;8.240;2023-06-22T10:20:30;7.63;;;5.93;;
803;SDS011;25687;49.976;8.240;2023-06-22T10:22:56;7.25;;;6.65;;
803;SDS011;25687;49.976;8.240;2023-06-22T10:25:21;7.75;;;6.43;;
803;SDS011;25687;49.976;8.240;2023-06-22T10:27:47;7.50;;;6.40;;
803;SDS011;25687;49.976;8.240;2023-06-22T10:30:12;7.30;;;6.63;;
803;SDS011;25687;49.976;8.240;2023-06-22T10:32:38;7.07;;;6.43;;
803;SDS011;25687;49.976;8.240;2023-06-22T10:35:04;12.85;;;6.40;;
803;SDS011;25687;49.976;8.240;2023-06-22T10:37:30;7.18;;;6.47;;
803;SDS011;25687;49.976;8.240;2023-06-22T10:39:55;9.18;;;6.68;;
803;SDS011;25687;49.976;8.240;2023-06-22T11:25:31;7.63;;;6.35;;
803;SDS011;25687;49.976;8.240;2023-06-22T11:27:56;8.57;;;7.03;;
803;SDS011;25687;49.976;8.240;2023-06-22T11:30:22;10.57;;;7.30;;
803;SDS011;25687;49.976;8.240;2023-06-22T11:32:48;10.43;;;6.85;;
803;SDS011;25687;49.976;8.240;2023-06-22T11:35:13;8.80;;;7.10;;
803;SDS011;25687;49.976;8.240;2023-06-22T11:37:38;9.50;;;6.88;;
803;SDS011;25687;49.976;8.240;2023-06-22T11:40:04;7.07;;;6.45;;
803;SDS011;25687;49.976;8.240;2023-06-22T11:42:30;8.05;;;6.53;;
803;SDS011;25687;49.976;8.240;2023-06-22T11:44:55;12.60;;;7.13;;
803;SDS011;25687;49.976;8.240;2023-06-22T11:47:21;11.48;;;6.47;;
803;SDS011;25687;49.976;8.240;2023-06-22T11:49:46;11.13;;;6.70;;
803;SDS011;25687;49.976;8.240;2023-06-22T11:52:11;13.93;;;6.72;;
803;SDS011;25687;49.976;8.240;2023-06-22T11:54:37;7.95;;;7.05;;
803;SDS011;25687;49.976;8.240;2023-06-22T11:57:03;8.18;;;6.78;;
803;SDS011;25687;49.976;8.240;2023-06-22T11:59:29;10.68;;;7.05;;
803;SDS011;25687;49.976;8.240;2023-06-22T12:15:20;13.73;;;7.00;;
803;SDS011;25687;49.976;8.240;2023-06-22T12:17:45;9.75;;;6.40;;
803;SDS011;25687;49.976;8.240;2023-06-22T12:20:11;11.27;;;7.10;;
803;SDS011;25687;49.976;8.240;2023-06-22T12:22:36;8.45;;;6.60;;
803;SDS011;25687;49.976;8.240;2023-06-22T12:25:02;7.72;;;6.82;;
803;SDS011;25687;49.976;8.240;2023-06-22T12:27:28;9.95;;;7.47;;
803;SDS011;25687;49.976;8.240;2023-06-22T12:43:22;10.32;;;7.13;;
803;SDS011;25687;49.976;8.240;2023-06-22T12:45:47;8.63;;;6.70;;
803;SDS011;25687;49.976;8.240;2023-06-22T12:48:12;9.73;;;7.57;;
803;SDS011;25687;49.976;8.240;2023-06-22T12:50:38;8.90;;;6.95;;
803;SDS011;25687;49.976;8.240;2023-06-22T12:53:03;11.93;;;6.85;;
803;SDS011;25687;49.976;8.240;2023-06-22T12:55:31;13.77;;;6.78;;
803;SDS011;25687;49.976;8.240;2023-06-22T12:57:56;10.80;;;7.05;;
803;SDS011;25687;49.976;8.240;2023-06-22T13:00:21;7.20;;;6.25;;
803;SDS011;25687;49.976;8.240;2023-06-22T13:02:47;11.05;;;6.65;;
803;SDS011;25687;49.976;8.240;2023-06-22T13:05:12;14.00;;;6.57;;
803;SDS011;25687;49.976;8.240;2023-06-22T13:07:37;9.35;;;6.40;;
803;SDS011;25687;49.976;8.240;2023-06-22T13:10:03;9.60;;;6.95;;
803;SDS011;25687;49.976;8.240;2023-06-22T13:12:28;10.93;;;6.50;;
803;SDS011;25687;49.976;8.240;2023-06-22T13:14:53;6.95;;;6.10;;
803;SDS011;25687;49.976;8.240;2023-06-22T13:17:19;8.32;;;6.53;;
803;SDS011;25687;49.976;8.240;2023-06-22T13:19:44;6.82;;;6.07;;
803;SDS011;25687;49.976;8.240;2023-06-22T13:22:31;9.30;;;6.90;;
803;SDS011;25687;49.976;8.240;2023-06-22T13:25:04;10.00;;;7.05;;
803;SDS011;25687;49.976;8.240;2023-06-22T13:27:30;10.45;;;6.40;;
803;SDS011;25687;49.976;8.240;2023-06-22T13:29:56;15.13;;;11.80;;
803;SDS011;25687;49.976;8.240;2023-06-22T13:32:21;10.82;;;7.28;;
803;SDS011;25687;49.976;8.240;2023-06-22T13:34:46;11.93;;;7.03;;
803;SDS011;25687;49.976;8.240;2023-06-22T13:37:11;10.32;;;7.15;;
803;SDS011;25687;49.976;8.240;2023-06-22T13:39:37;13.90;;;6.38;;
803;SDS011;25687;49.976;8.240;2023-06-22T13:42:02;11.73;;;6.32;;
803;SDS011;25687;49.976;8.240;2023-06-22T13:44:27;10.63;;;6.03;;
803;SDS011;25687;49.976;8.240;2023-06-22T13:46:54;9.85;;;6.32;;
803;SDS011;25687;49.976;8.240;2023-06-22T13:49:19;9.35;;;5.60;;
803;SDS011;25687;49.976;8.240;2023-06-22T13:51:45;9.45;;;5.28;;
803;SDS011;25687;49.976;8.240;2023-06-22T13:54:10;12.57;;;5.45;;
803;SDS011;25687;49.976;8.240;2023-06-22T13:56:35;10.75;;;4.80;;
803;SDS011;25687;49.976;8.240;2023-06-22T13:59:00;12.73;;;5.32;;
803;SDS011;25687;49.976;8.240;2023-06-22T14:01:26;11.15;;;5.70;;
803;SDS011;25687;49.976;8.240;2023-06-22T14:03:51;10.35;;;5.13;;
803;SDS011;25687;49.976;8.240;2023-06-22T14:06:16;7.97;;;4.82;;
803;SDS011;25687;49.976;8.240;2023-06-22T14:08:41;13.27;;;5.50;;
803;SDS011;25687;49.976;8.240;2023-06-22T14:11:07;14.35;;;5.43;;
803;SDS011;25687;49.976;8.240;2023-06-22T14:13:32;15.05;;;5.28;;
803;SDS011;25687;49.976;8.240;2023-06-22T14:15:57;11.10;;;5.32;;
803;SDS011;25687;49.976;8.240;2023-06-22T14:18:22;14.05;;;5.70;;
803;SDS011;25687;49.976;8.240;2023-06-22T14:20:48;12.85;;;4.88;;
803;SDS011;25687;49.976;8.240;2023-06-22T14:23:14;14.88;;;5.15;;
803;SDS011;25687;49.976;8.240;2023-06-22T14:25:39;11.50;;;4.95;;
803;SDS011;25687;49.976;8.240;2023-06-22T14:28:05;13.00;;;5.18;;
803;SDS011;25687;49.976;8.240;2023-06-22T14:30:30;19.98;;;6.05;;
803;SDS011;25687;49.976;8.240;2023-06-22T14:32:55;12.32;;;5.68;;
803;SDS011;25687;49.976;8.240;2023-06-22T14:35:21;12.88;;;5.78;;
803;SDS011;25687;49.976;8.240;2023-06-22T14:37:46;13.57;;;5.30;;
803;SDS011;25687;49.976;8.240;2023-06-22T14:40:11;14.15;;;5.70;;
803;SDS011;25687;49.976;8.240;2023-06-22T14:42:37;18.02;;;5.07;;
803;SDS011;25687;49.976;8.240;2023-06-22T14:45:02;12.32;;;4.70;;
803;SDS011;25687;49.976;8.240;2023-06-22T14:47:28;11.38;;;5.60;;
803;SDS011;25687;49.976;8.240;2023-06-22T14:49:53;10.45;;;5.97;;
803;SDS011;25687;49.976;8.240;2023-06-22T14:52:19;16.38;;;6.60;;
803;SDS011;25687;49.976;8.240;2023-06-22T14:54:45;11.30;;;5.65;;
803;SDS011;25687;49.976;8.240;2023-06-22T14:57:10;13.80;;;5.82;;
803;SDS011;25687;49.976;8.240;2023-06-22T14:59:35;19.70;;;5.72;;
803;SDS011;25687;49.976;8.240;2023-06-22T15:02:01;9.27;;;4.97;;
803;SDS011;25687;49.976;8.240;2023-06-22T15:04:26;15.70;;;5.70;;
803;SDS011;25687;49.976;8.240;2023-06-22T15:06:56;15.20;;;6.00;;
803;SDS011;25687;49.976;8.240;2023-06-22T15:09:21;13.80;;;4.88;;
803;SDS011;25687;49.976;8.240;2023-06-22T15:11:47;23.88;;;5.10;;
803;SDS011;25687;49.976;8.240;2023-06-22T15:14:13;12.10;;;5.10;;
803;SDS011;25687;49.976;8.240;2023-06-22T15:16:38;14.98;;;4.93;;
803;SDS011;25687;49.976;8.240;2023-06-22T15:19:05;14.30;;;5.50;;
803;SDS011;25687;49.976;8.240;2023-06-22T15:21:30;11.52;;;4.57;;
803;SDS011;25687;49.976;8.240;2023-06-22T15:23:55;12.40;;;5.03;;
803;SDS011;25687;49.976;8.240;2023-06-22T15:26:22;13.48;;;5.07;;
803;SDS011;25687;49.976;8.240;2023-06-22T15:28:47;10.57;;;5.78;;
803;SDS011;25687;49.976;8.240;2023-06-22T15:31:13;13.50;;;5.50;;
803;SDS011;25687;49.976;8.240;2023-06-22T15:33:38;12.93;;;5.70;;
803;SDS011;25687;49.976;8.240;2023-06-22T15:36:03;12.93;;;5.47;;
803;SDS011;25687;49.976;8.240;2023-06-22T15:38:30;13.50;;;5.65;;
803;SDS011;25687;49.976;8.240;2023-06-22T15:40:56;18.38;;;6.20;;
803;SDS011;25687;49.976;8.240;2023-06-22T15:43:21;10.23;;;5.97;;
803;SDS011;25687;49.976;8.240;2023-06-22T15:45:46;18.98;;;5.88;;
803;SDS011;25687;49.976;8.240;2023-06-22T15:48:14;21.52;;;5.05;;
803;SDS011;25687;49.976;8.240;2023-06-22T15:50:39;18.60;;;5.40;;
803;SDS011;25687;49.976;8.240;2023-06-22T15:53:04;16.17;;;5.72;;
803;SDS011;25687;49.976;8.240;2023-06-22T15:55:30;9.57;;;4.30;;
803;SDS011;25687;49.976;8.240;2023-06-22T15:57:56;18.67;;;6.28;;
803;SDS011;25687;49.976;8.240;2023-06-22T16:00:21;15.23;;;6.13;;
803;SDS011;25687;49.976;8.240;2023-06-22T16:02:47;17.75;;;6.07;;
803;SDS011;25687;49.976;8.240;2023-06-22T16:05:12;14.73;;;5.63;;
803;SDS011;25687;49.976;8.240;2023-06-22T16:07:38;14.27;;;5.80;;
803;SDS011;25687;49.976;8.240;2023-06-22T16:10:04;17.27;;;6.47;;
803;SDS011;25687;49.976;8.240;2023-06-22T16:12:30;21.87;;;5.97;;
803;SDS011;25687;49.976;8.240;2023-06-22T16:14:56;15.00;;;6.20;;